サンクトペテルブルク の空港の天気 - METARとTAF

プルコヴォ空港(サンクトペテルブルグ) ( ULLI / LED ) - ロシア サンクトペテルブルク
飛行場実況気象(Metar)
観測時間01/17 09:30 MSK (01/17 06:30 UTC)
風向・風速不定 1m/s
視程10km以上
天気現象
少しの雲 雲底高度 340m
全天の8割程度の雲 雲底高度 760m
気温-5℃
湿度86%
気圧1030hPa
METARULLI 170630Z VRB01MPS 9999 FEW011 BKN025 M05/M07 Q1030 R88/550348 NOSIG
過去の天気等 Google飛行場航空写真 Wunderground天気予報

過去48時間のMETAR

飛行場予報(TAF)
発表時間: 1/17 07:59 MSK (1/17 04:59 UTC)
予報対象時間: 17日9時 MSK ~ 18日9時 MSK
風向・風速西南西 3m/s
視程6,000m
全天の8割程度の雲 雲底高度 210m
全天の8割程度の雲 雲底高度 400m
17日9時 MSK ~ 17日10時 MSK に一時的に
視程300m
天気現象弱い雪 氷霧
全天の8割程度の雲 雲底高度 60m
全天の8割程度の雲 雲底高度 400m
17日10時 MSK ~ 17日12時 MSK に徐々に
風向・風速南南西 3m/s 瞬間風速 8m/s
17日10時 MSK ~ 18日3時 MSK に一時的に
視程2,100m
天気現象弱いしゅう雪 もや
全天の8割程度の雲 雲底高度 150m
全天の8割程度の積乱雲 雲底高度 400m
18日3時 MSK ~ 18日9時 MSK に一時的に
風向・風速南西 5m/s 瞬間風速 12m/s
視程1,200m
天気現象弱いしゅう雪 もや
全天の8割程度の雲 雲底高度 120m
全天の8割程度の積乱雲 雲底高度 400m
TAF ULLI 170459Z 1706/1806 24003MPS 6000 BKN007 BKN013
TEMPO 1706/1707 0300 -SN FZFG BKN002 BKN013
BECMG 1707/1709 21003G08MPS
TEMPO 1707/1724 2100 -SHSN BR BKN005 BKN013CB
TEMPO 1800/1806 23005G12MPS 1200 -SHSN BR BKN004 BKN013CB